Bardwell, Ohio
Current Conditions -  °F | °C
As of 2:54 PM on Thursday 30 Oct 2014 (Local Time) from KILN Reporting Station
Few Clouds Few Clouds  
Wind Chill: 53°   Ceiling: Unl
Heat Index: 53°   Visibility: 10mi
Dew Point: 32°   Wind: 3mph
Humidity: 45%   Direction: NA
Pressure: 30.09"   Gusts: NA
Location:  39.064°N, 83.9197°W
Report Text: KILN 301854Z AUTO VRB03KT 10SM FEW046 12/00 A3009 RMK AO2 SLP200 T01170000
Loading
Personal Weather Stations






























Interactive Weather Map
Tropical Storm Tracking
New forecast layout! Learn more

10-Day Weather Forecast

Advertisements
Track Severe Weather on mobile